This is the latest recevied weather packets stored in our database for station/object K2ATL. If no packets are shown the sender has not sent any weather packets the latest 1 day(s).
| Time | Temp. | Humidity | Pressure | Rain* | Wind** | Luminosity | Snow |
|---|---|---|---|---|---|---|---|
| 1778097466 | 17.78° C | 98% | 1098.4 hPa | 0 mm | - | 214 W/m² | - |
| 1778096556 | 17.78° C | 99% | 1099.1 hPa | 0 mm | - | 118 W/m² | - |
| 1778096254 | 17.78° C | 99% | 1098.8 hPa | 0 mm | - | 73 W/m² | - |
| 1778095647 | 17.78° C | 99% | 1099 hPa | 0 mm | - | 58 W/m² | - |
| 1778095344 | 17.78° C | 99% | 1099.3 hPa | 0 mm | - | 62 W/m² | - |
| 1778094434 | 17.78° C | 99% | 1099.5 hPa | 0 mm | - | 62 W/m² | - |
| 1778093828 | 17.78° C | 99% | 1099.6 hPa | 0 mm | - | 118 W/m² | - |
| 1778093524 | 17.78° C | 99% | 1099.5 hPa | 0 mm | - | 125 W/m² | - |
| 1778092610 | 17.78° C | 99% | 1100.1 hPa | 0 mm | - | 80 W/m² | - |
| 1778091398 | 17.22° C | 99% | 1100.4 hPa | 0 mm | - | 57 W/m² | - |
| 1778090488 | 17.22° C | 99% | 1100.4 hPa | 0 mm | - | 59 W/m² | - |
| 1778089880 | 17.22° C | 99% | 1100.3 hPa | 0 mm | - | 82 W/m² | - |
| 1778087761 | 16.67° C | 99% | 1100.1 hPa | 0 mm | - | 164 W/m² | - |
| 1778081806 | 15.56° C | 99% | 1100.5 hPa | 19.81 mm | - | 48 W/m² | - |
| 1778081503 | 15.56° C | 99% | 1100.2 hPa | 21.08 mm | - | 92 W/m² | - |
| 1778081200 | 15.56° C | 99% | 1101.9 hPa | 3.05 mm | - | 11 W/m² | - |
| 1778078778 | 15.56° C | 95% | 1100.7 hPa | 0 mm | - | 59 W/m² | - |
| 1778078474 | 15.56° C | 94% | 1100.8 hPa | 0 mm | - | 37 W/m² | - |
| 1778077870 | 16.11° C | 93% | 1100.8 hPa | 0 mm | - | 16 W/m² | - |
| 1778077568 | 16.11° C | 93% | 1100.3 hPa | 0 mm | - | 35 W/m² | - |
| 1778077266 | 16.11° C | 92% | 1100.4 hPa | 0 mm | - | 28 W/m² | - |
| 1778076963 | 16.67° C | 89% | 1100.5 hPa | 0 mm | - | 17 W/m² | - |
| 1778073630 | 16.67° C | 85% | 1100 hPa | 0 mm | - | 21 W/m² | - |
| 1778073327 | 16.67° C | 85% | 1099.9 hPa | 0 mm | - | 20 W/m² | - |
| 1778072720 | 16.67° C | 84% | 1099.6 hPa | 0 mm | - | 31 W/m² | - |
* Rain latest hour (hover to see other rain measurements)
** Current wind speed in m/s (hover to see current wind gust speed)